Time;durP1;ratioP1;P1;durP2;ratioP2;P2;SDS_P1;SDS_P2;PMS_P1;PMS_P2;Temp;Humidity;BMP_temperature;BMP_pressure;BME280_temperature;BME280_humidity;BME280_pressure;Samples;Min_cycle;Max_cycle;Signal;HPM_P1;HPM_P2
2023/02/26 00:01:25;;;;;;;;;;;;;;;3.14;100.00;99314.06;5029155;28;19940;-74
2023/02/26 00:03:51;;;;;;;;;;;;;;;3.60;100.00;99306.53;5028218;28;20020;-74
2023/02/26 00:06:17;;;;;;;;;;;;;;;2.84;100.00;99259.72;5029533;28;20272;-74
2023/02/26 00:08:42;;;;;;;;;;;;;;;3.28;100.00;99258.97;5027623;28;19920;-74
2023/02/26 00:11:08;;;;;;;;;;;;;;;3.34;100.00;99248.78;5033382;28;19921;-74
2023/02/26 00:13:34;;;;;;;;;;;;;;;2.74;100.00;99214.75;5030590;28;19917;-74
2023/02/26 00:16:00;;;;;;;;;;;;;;;3.76;100.00;99231.84;5033025;28;19916;-74
2023/02/26 00:18:25;;;;;;;;;;;;;;;2.56;100.00;99192.66;5030654;28;19999;-74
2023/02/26 00:20:50;;;;;;;;;;;;;;;2.89;100.00;99206.31;5042923;28;19924;-74
2023/02/26 00:23:17;;;;;;;;;;;;;;;2.84;100.00;99201.22;5034047;28;19917;-74
2023/02/26 00:25:42;;;;;;;;;;;;;;;3.47;100.00;99203.00;5031632;28;19925;-74
2023/02/26 00:28:08;;;;;;;;;;;;;;;2.58;100.00;99185.03;5033196;28;19917;-74
2023/02/26 00:30:33;;;;;;;;;;;;;;;3.96;100.00;99205.47;5032326;28;19990;-74
2023/02/26 00:32:59;;;;;;;;;;;;;;;4.16;100.00;99187.59;5033687;28;20425;-74
2023/02/26 00:35:24;;;;;;;;;;;;;;;4.46;100.00;99178.13;5031172;28;19920;-74
2023/02/26 00:37:58;;;;;;;;;;;;;;;2.35;100.00;99132.44;5029986;28;19970;-74
2023/02/26 00:40:34;;;;;;;;;;;;;;;2.54;100.00;99140.97;5031916;28;20487;-74
2023/02/26 00:43:00;;;;;;;;;;;;;;;3.40;100.00;99160.53;5030289;28;19917;-74
2023/02/26 00:45:25;;;;;;;;;;;;;;;3.35;100.00;99168.19;5030131;28;20577;-74
2023/02/26 00:48:17;;;;;;;;;;;;;;;2.66;100.00;99152.84;5030737;28;19987;-74
2023/02/26 00:50:45;;;;;;;;;;;;;;;2.46;100.00;99157.88;5005578;28;19925;-74
2023/02/26 00:53:18;;;;;;;;;;;;;;;2.90;100.00;99170.72;5030253;28;19912;-74
2023/02/26 00:55:43;;;;;;;;;;;;;;;2.98;100.00;99175.78;5029723;28;20039;-74
2023/02/26 00:58:09;;;;;;;;;;;;;;;3.56;100.00;99183.47;5033884;28;20000;-75
2023/02/26 01:00:34;;;;;;;;;;;;;;;3.98;100.00;99173.19;5030412;28;20075;-74
2023/02/26 01:02:59;;;;;;;;;;;;;;;4.12;100.00;99162.97;5034482;28;20008;-75
2023/02/26 01:05:25;;;;;;;;;;;;;;;4.64;100.00;99156.78;5031674;28;20529;-75
2023/02/26 01:07:56;;;;;;;;;;;;;;;4.46;100.00;99135.63;5031601;28;20315;-75
2023/02/26 01:10:21;;;;;;;;;;;;;;;4.69;100.00;99124.44;5030610;28;20585;-75
2023/02/26 01:12:46;;;;;;;;;;;;;;;4.52;100.00;99107.53;5033107;28;19920;-75
2023/02/26 01:15:12;;;;;;;;;;;;;;;4.31;100.00;99087.25;5033835;28;19913;-75
2023/02/26 01:17:40;;;;;;;;;;;;;;;4.29;100.00;99083.84;5030865;28;20285;-75
2023/02/26 01:20:05;;;;;;;;;;;;;;;3.21;100.00;99074.03;5031848;28;19917;-74
2023/02/26 01:22:35;;;;;;;;;;;;;;;2.39;100.00;99079.91;5034659;28;20008;-75
2023/02/26 01:25:02;;;;;;;;;;;;;;;2.91;100.00;99098.63;5030528;28;20069;-74
2023/02/26 01:27:27;;;;;;;;;;;;;;;1.52;100.00;99093.97;5033079;28;19917;-75
2023/02/26 01:29:52;;;;;;;;;;;;;;;1.25;100.00;99109.84;5033467;28;19921;-75
2023/02/26 01:32:19;;;;;;;;;;;;;;;1.87;100.00;99136.44;5028650;28;19925;-75
2023/02/26 01:34:51;;;;;;;;;;;;;;;1.24;100.00;99136.91;5034038;28;20298;-75
2023/02/26 01:37:25;;;;;;;;;;;;;;;1.33;100.00;99153.06;5034738;28;19970;-74
2023/02/26 01:39:59;;;;;;;;;;;;;;;1.56;100.00;99165.91;5031569;28;19917;-75
2023/02/26 01:42:25;;;;;;;;;;;;;;;1.08;100.00;99177.38;5031448;28;19968;-75
2023/02/26 01:45:09;;;;;;;;;;;;;;;1.31;100.00;99190.25;5029238;28;19960;-75
2023/02/26 01:47:52;;;;;;;;;;;;;;;2.25;100.00;99212.84;5033952;28;19963;-75
2023/02/26 01:50:19;;;;;;;;;;;;;;;1.24;100.00;99212.19;5031449;28;20437;-75
2023/02/26 01:52:47;;;;;;;;;;;;;;;1.75;100.00;99213.41;5030516;28;19913;-75
2023/02/26 01:55:16;;;;;;;;;;;;;;;1.86;100.00;99221.09;5032732;28;19913;-75
2023/02/26 01:57:41;;;;;;;;;;;;;;;1.49;100.00;99212.38;5033201;28;19913;-75
2023/02/26 02:00:07;;;;;;;;;;;;;;;2.49;100.00;99224.84;5017150;28;19923;-75
2023/02/26 02:02:32;;;;;;;;;;;;;;;2.41;100.00;99221.41;5032424;28;19924;-75
2023/02/26 02:04:57;;;;;;;;;;;;;;;2.41;100.00;99220.56;5033025;28;19952;-74
2023/02/26 02:07:23;;;;;;;;;;;;;;;1.58;100.00;99205.69;5033044;28;20379;-75
2023/02/26 02:09:48;;;;;;;;;;;;;;;2.46;100.00;99224.84;5033193;28;20391;-75
2023/02/26 02:12:13;;;;;;;;;;;;;;;3.22;100.00;99223.34;5031617;28;20395;-75
2023/02/26 02:14:38;;;;;;;;;;;;;;;2.55;100.00;99202.81;5030748;28;19921;-75
2023/02/26 02:17:04;;;;;;;;;;;;;;;3.26;100.00;99212.31;5034384;28;19973;-75
2023/02/26 02:19:46;;;;;;;;;;;;;;;3.32;100.00;99191.94;5033293;28;19960;-75
2023/02/26 02:22:30;;;;;;;;;;;;;;;3.95;100.00;99188.50;5025485;28;19913;-75
2023/02/26 02:25:09;;;;;;;;;;;;;;;4.13;100.00;99170.63;5030677;28;19948;-74
2023/02/26 02:27:53;;;;;;;;;;;;;;;4.00;100.00;99145.19;5027408;28;19920;-74
2023/02/26 02:30:24;;;;;;;;;;;;;;;3.77;100.00;99134.19;5035349;28;19917;-75
2023/02/26 02:32:59;;;;;;;;;;;;;;;3.63;100.00;99133.38;5029689;28;19912;-75
2023/02/26 02:35:35;;;;;;;;;;;;;;;3.29;100.00;99123.22;5028184;28;19967;-75
2023/02/26 02:38:05;;;;;;;;;;;;;;;3.40;100.00;99127.44;5030403;28;20425;-75
2023/02/26 02:40:32;;;;;;;;;;;;;;;3.61;100.00;99129.97;5031190;28;19917;-75
2023/02/26 02:43:05;;;;;;;;;;;;;;;3.86;100.00;99129.94;5029257;28;19971;-75
2023/02/26 02:45:33;;;;;;;;;;;;;;;3.52;100.00;99119.81;5027121;28;19968;-75
2023/02/26 02:48:00;;;;;;;;;;;;;;;3.52;100.00;99117.28;5026770;28;20011;-75
2023/02/26 02:50:28;;;;;;;;;;;;;;;3.68;100.00;99126.56;5027193;28;19923;-75
2023/02/26 02:52:54;;;;;;;;;;;;;;;2.89;100.00;99125.75;5010152;28;20451;-74
2023/02/26 02:55:21;;;;;;;;;;;;;;;2.98;100.00;99126.63;5026718;28;20368;-75
2023/02/26 02:57:51;;;;;;;;;;;;;;;3.35;100.00;99138.50;5027414;28;19924;-74
2023/02/26 03:00:17;;;;;;;;;;;;;;;3.21;100.00;99136.81;5041831;28;19917;-75
2023/02/26 03:02:46;;;;;;;;;;;;;;;3.53;100.00;99129.13;5033488;28;19917;-75
2023/02/26 03:05:11;;;;;;;;;;;;;;;2.83;100.00;99128.31;5029402;28;19917;-75
2023/02/26 03:07:39;;;;;;;;;;;;;;;2.97;100.00;99135.13;5031975;28;19913;-75
2023/02/26 03:10:04;;;;;;;;;;;;;;;2.78;100.00;99140.16;5027769;28;20283;-75
2023/02/26 03:12:30;;;;;;;;;;;;;;;2.80;100.00;99143.56;5029298;28;19917;-74
2023/02/26 03:14:56;;;;;;;;;;;;;;;3.58;100.00;99146.94;5020113;28;20778;-74
2023/02/26 03:17:24;;;;;;;;;;;;;;;2.11;100.00;99132.34;5021198;28;20004;-75
2023/02/26 03:20:01;;;;;;;;;;;;;;;2.42;100.00;99146.88;5023812;28;20391;-75
2023/02/26 03:22:29;;;;;;;;;;;;;;;1.70;100.00;99153.31;5021926;28;19956;-74
2023/02/26 03:24:56;;;;;;;;;;;;;;;2.17;100.00;99180.66;5025150;28;19924;-74
2023/02/26 03:27:29;;;;;;;;;;;;;;;2.73;100.00;99191.00;5022042;28;19968;-75
2023/02/26 03:29:57;;;;;;;;;;;;;;;2.13;100.00;99178.94;5021426;28;19979;-75
2023/02/26 03:32:29;;;;;;;;;;;;;;;3.10;100.00;99192.78;5023914;28;20020;-74
2023/02/26 03:35:00;;;;;;;;;;;;;;;3.09;100.00;99186.00;5022013;28;19921;-74
2023/02/26 03:37:26;;;;;;;;;;;;;;;3.45;100.00;99180.06;5019285;28;20478;-75
2023/02/26 03:39:53;;;;;;;;;;;;;;;2.32;100.00;99162.91;5022340;28;20011;-75
2023/02/26 03:42:21;;;;;;;;;;;;;;;2.39;100.00;99187.50;5022315;28;19921;-74
2023/02/26 03:44:54;;;;;;;;;;;;;;;2.85;100.00;99197.84;5024840;28;19928;-74
2023/02/26 03:47:19;;;;;;;;;;;;;;;3.47;100.00;99192.81;5025163;28;20489;-75
2023/02/26 03:49:47;;;;;;;;;;;;;;;3.51;100.00;99180.06;5018652;28;19921;-74
2023/02/26 03:52:12;;;;;;;;;;;;;;;3.30;100.00;99175.81;5027672;28;19970;-75
2023/02/26 03:54:38;;;;;;;;;;;;;;;2.48;100.00;99173.97;5030007;28;19929;-74
2023/02/26 03:57:03;;;;;;;;;;;;;;;2.11;100.00;99190.78;5022507;28;19917;-74
2023/02/26 03:59:28;;;;;;;;;;;;;;;1.61;100.00;99208.22;5027652;28;19921;-74
2023/02/26 04:01:57;;;;;;;;;;;;;;;1.01;100.00;99220.41;5025743;28;19976;-74
2023/02/26 04:04:27;;;;;;;;;;;;;;;1.44;100.00;99245.34;5028196;28;20570;-74
2023/02/26 04:06:53;;;;;;;;;;;;;;;1.15;100.00;99255.22;5028907;28;20276;-75
2023/02/26 04:09:18;;;;;;;;;;;;;;;0.76;100.00;99264.94;5029244;28;20016;-74
2023/02/26 04:11:43;;;;;;;;;;;;;;;0.97;100.00;99282.06;5029375;28;20070;-75
2023/02/26 04:14:08;;;;;;;;;;;;;;;0.58;100.00;99282.47;5027829;28;20303;-75
2023/02/26 04:16:34;;;;;;;;;;;;;;;0.52;100.00;99292.50;5024717;28;19924;-74
2023/02/26 04:18:59;;;;;;;;;;;;;;;0.54;100.00;99311.13;5023318;28;19928;-75
2023/02/26 04:21:24;;;;;;;;;;;;;;;0.40;100.00;99319.38;5029369;28;19920;-75
2023/02/26 04:23:49;;;;;;;;;;;;;;;0.67;100.00;99333.25;5030164;28;20538;-75
2023/02/26 04:26:15;;;;;;;;;;;;;;;0.24;100.00;99331.81;5022660;28;20586;-75
2023/02/26 04:28:40;;;;;;;;;;;;;;;0.68;100.00;99350.16;5024534;28;20443;-74
2023/02/26 04:31:05;;;;;;;;;;;;;;;0.56;100.00;99350.00;5028588;28;19932;-74
2023/02/26 04:33:32;;;;;;;;;;;;;;;0.51;100.00;99351.63;5023235;28;20060;-74
2023/02/26 04:35:57;;;;;;;;;;;;;;;0.47;100.00;99354.94;5024637;28;19921;-74
2023/02/26 04:38:22;;;;;;;;;;;;;;;0.44;100.00;99354.91;5025792;28;19932;-74
2023/02/26 04:40:48;;;;;;;;;;;;;;;0.36;100.00;99362.38;5021958;28;20304;-74
2023/02/26 04:43:13;;;;;;;;;;;;;;;0.67;100.00;99368.75;5026829;28;20395;-74
2023/02/26 04:45:38;;;;;;;;;;;;;;;1.49;100.00;99382.44;5028656;28;20000;-74
2023/02/26 04:48:04;;;;;;;;;;;;;;;1.23;100.00;99367.75;5027106;28;20020;-75
2023/02/26 04:50:29;;;;;;;;;;;;;;;0.60;100.00;99352.59;5020345;28;20023;-74
2023/02/26 04:52:54;;;;;;;;;;;;;;;0.72;100.00;99367.13;5027643;28;19971;-74
2023/02/26 04:55:19;;;;;;;;;;;;;;;0.56;100.00;99360.16;5030439;28;19960;-75
2023/02/26 04:57:44;;;;;;;;;;;;;;;0.55;100.00;99376.19;5025395;28;20578;-74
2023/02/26 05:00:10;;;;;;;;;;;;;;;0.40;100.00;99387.78;5022591;28;20711;-75
2023/02/26 05:02:35;;;;;;;;;;;;;;;0.30;100.00;99395.25;5032464;28;19913;-75
2023/02/26 05:05:00;;;;;;;;;;;;;;;0.07;100.00;99392.31;5027201;28;20346;-75
2023/02/26 05:07:26;;;;;;;;;;;;;;;0.20;100.00;99407.72;5028249;28;19931;-74
2023/02/26 05:09:51;;;;;;;;;;;;;;;0.57;100.00;99415.94;5024179;28;20312;-75
2023/02/26 05:12:16;;;;;;;;;;;;;;;0.69;100.00;99422.00;5030266;28;19960;-74
2023/02/26 05:14:41;;;;;;;;;;;;;;;0.67;100.00;99429.59;5023567;28;19974;-75
2023/02/26 05:17:07;;;;;;;;;;;;;;;0.62;100.00;99431.19;5025631;28;20799;-74
2023/02/26 05:19:32;;;;;;;;;;;;;;;0.92;100.00;99440.06;5019260;28;20576;-74
2023/02/26 05:21:57;;;;;;;;;;;;;;;0.56;100.00;99433.63;5028844;28;20299;-74
2023/02/26 05:24:22;;;;;;;;;;;;;;;1.27;100.00;99447.28;5028888;28;21025;-74
2023/02/26 05:26:48;;;;;;;;;;;;;;;1.74;100.00;99452.09;5027065;28;20559;-74
2023/02/26 05:29:13;;;;;;;;;;;;;;;1.48;100.00;99442.47;5023857;28;19917;-74
2023/02/26 05:31:38;;;;;;;;;;;;;;;1.38;100.00;99426.28;5027638;28;19982;-74
2023/02/26 05:34:03;;;;;;;;;;;;;;;1.48;100.00;99432.31;5025571;28;19921;-75
2023/02/26 05:36:29;;;;;;;;;;;;;;;2.18;100.00;99444.03;5028177;28;19925;-75
2023/02/26 05:38:54;;;;;;;;;;;;;;;1.10;100.00;99414.97;5024408;28;19943;-75
2023/02/26 05:41:19;;;;;;;;;;;;;;;2.46;100.00;99433.28;5032313;28;20410;-75
2023/02/26 05:43:44;;;;;;;;;;;;;;;2.55;100.00;99417.22;5022755;28;19931;-74
2023/02/26 05:46:10;;;;;;;;;;;;;;;2.48;100.00;99418.84;5030017;28;19952;-74
2023/02/26 05:48:35;;;;;;;;;;;;;;;2.96;100.00;99414.06;5020727;28;19921;-74
2023/02/26 05:51:01;;;;;;;;;;;;;;;2.22;100.00;99393.25;5024713;28;19986;-75
2023/02/26 05:53:27;;;;;;;;;;;;;;;2.19;100.00;99384.75;5030924;28;20355;-74
2023/02/26 05:55:52;;;;;;;;;;;;;;;3.08;100.00;99377.66;5031890;28;19967;-74
2023/02/26 05:58:17;;;;;;;;;;;;;;;1.88;100.00;99371.81;5021419;28;19921;-75
2023/02/26 06:00:42;;;;;;;;;;;;;;;1.58;100.00;99362.22;5002411;28;19921;-75
2023/02/26 06:03:08;;;;;;;;;;;;;;;2.35;100.00;99381.50;5028644;28;20003;-74
2023/02/26 06:05:34;;;;;;;;;;;;;;;1.57;100.00;99378.28;5022916;28;19921;-74
2023/02/26 06:08:00;;;;;;;;;;;;;;;1.92;100.00;99401.47;5024204;28;19921;-74
2023/02/26 06:10:25;;;;;;;;;;;;;;;2.47;100.00;99394.28;5027832;28;20437;-74
2023/02/26 06:12:50;;;;;;;;;;;;;;;2.16;100.00;99402.53;5027839;28;20682;-75
2023/02/26 06:15:15;;;;;;;;;;;;;;;1.74;100.00;99403.84;5025379;28;19917;-74
2023/02/26 06:17:40;;;;;;;;;;;;;;;1.95;100.00;99405.72;5022235;28;19925;-75
2023/02/26 06:20:06;;;;;;;;;;;;;;;2.13;100.00;99413.50;5024420;28;19923;-75
2023/02/26 06:22:31;;;;;;;;;;;;;;;2.10;100.00;99423.66;5025269;28;19924;-74
2023/02/26 06:24:56;;;;;;;;;;;;;;;2.55;100.00;99427.38;5021160;28;20095;-74
2023/02/26 06:27:22;;;;;;;;;;;;;;;2.11;100.00;99424.50;5023714;28;19971;-75
2023/02/26 06:29:47;;;;;;;;;;;;;;;2.80;100.00;99422.47;5013945;28;19928;-74
2023/02/26 06:32:12;;;;;;;;;;;;;;;1.91;100.00;99426.84;5022227;28;19983;-74
2023/02/26 06:34:37;;;;;;;;;;;;;;;1.79;100.00;99430.13;5021730;28;20461;-74
2023/02/26 06:37:03;;;;;;;;;;;;;;;1.89;100.00;99439.53;5021813;28;19921;-74
2023/02/26 06:39:28;;;;;;;;;;;;;;;1.97;100.00;99443.00;5022780;28;19922;-75
2023/02/26 06:41:53;;;;;;;;;;;;;;;1.91;100.00;99453.09;5019075;28;19921;-74
2023/02/26 06:44:18;;;;;;;;;;;;;;;1.93;100.00;99461.59;5024368;28;19925;-75
2023/02/26 06:46:44;;;;;;;;;;;;;;;2.15;100.00;99461.81;5028166;28;20339;-75
2023/02/26 06:49:09;;;;;;;;;;;;;;;1.46;100.00;99460.22;5018207;28;20928;-75
2023/02/26 06:51:34;;;;;;;;;;;;;;;1.67;100.00;99476.56;4999208;28;19921;-74
2023/02/26 06:53:59;;;;;;;;;;;;;;;2.22;100.00;99491.50;5021442;28;20100;-75
2023/02/26 06:56:25;;;;;;;;;;;;;;;1.73;100.00;99493.53;5027109;28;20613;-75
2023/02/26 06:58:50;;;;;;;;;;;;;;;1.94;100.00;99493.78;5020860;28;19921;-74
2023/02/26 07:01:15;;;;;;;;;;;;;;;2.60;100.00;99498.59;5016905;28;19921;-75
2023/02/26 07:03:40;;;;;;;;;;;;;;;1.82;100.00;99486.00;5014577;28;19925;-75
2023/02/26 07:06:06;;;;;;;;;;;;;;;2.51;100.00;99507.03;5028960;28;19999;-74
2023/02/26 07:08:32;;;;;;;;;;;;;;;1.72;100.00;99509.59;5021125;28;20362;-75
2023/02/26 07:10:57;;;;;;;;;;;;;;;2.32;100.00;99516.16;5025284;28;20296;-74
2023/02/26 07:13:22;;;;;;;;;;;;;;;3.00;100.00;99516.72;5018570;28;20408;-74
2023/02/26 07:15:47;;;;;;;;;;;;;;;3.05;100.00;99510.81;5021588;28;20670;-75
2023/02/26 07:18:14;;;;;;;;;;;;;;;2.04;100.00;99510.81;5025431;28;19920;-74
2023/02/26 07:20:39;;;;;;;;;;;;;;;2.42;100.00;99517.97;5026473;28;19927;-74
2023/02/26 07:23:04;;;;;;;;;;;;;;;1.34;100.00;99509.97;5023727;28;20003;-74
2023/02/26 07:25:29;;;;;;;;;;;;;;;1.56;100.00;99527.19;5030222;28;19920;-74
2023/02/26 07:27:55;;;;;;;;;;;;;;;1.78;100.00;99547.75;5034788;28;20359;-75
2023/02/26 07:30:20;;;;;;;;;;;;;;;1.99;100.00;99550.56;5028631;28;20448;-74
2023/02/26 07:32:45;;;;;;;;;;;;;;;1.45;100.00;99561.72;5022404;28;20016;-75
2023/02/26 07:35:11;;;;;;;;;;;;;;;1.36;100.00;99569.22;5027105;28;20036;-75
2023/02/26 07:37:36;;;;;;;;;;;;;;;1.30;100.00;99576.72;5019030;28;19917;-75
2023/02/26 07:40:02;;;;;;;;;;;;;;;1.76;100.00;99583.28;5030368;28;20023;-75
2023/02/26 07:42:27;;;;;;;;;;;;;;;2.23;100.00;99594.84;5033292;28;20967;-74
2023/02/26 07:44:52;;;;;;;;;;;;;;;1.61;100.00;99583.94;5026304;28;19922;-75
2023/02/26 07:47:17;;;;;;;;;;;;;;;1.58;100.00;99591.53;5006312;28;19970;-75
2023/02/26 07:49:43;;;;;;;;;;;;;;;1.41;100.00;99590.41;5001092;28;19964;-74
2023/02/26 07:52:08;;;;;;;;;;;;;;;1.75;100.00;99598.50;5003180;28;20371;-74
2023/02/26 07:54:34;;;;;;;;;;;;;;;1.02;100.00;99594.06;5002164;28;20682;-75
2023/02/26 07:56:59;;;;;;;;;;;;;;;0.57;100.00;99595.00;5002027;28;20463;-74
2023/02/26 07:59:24;;;;;;;;;;;;;;;1.80;100.00;99615.53;5002337;28;19978;-74
2023/02/26 08:01:49;;;;;;;;;;;;;;;0.61;100.00;99601.81;5004719;28;19925;-74
2023/02/26 08:04:15;;;;;;;;;;;;;;;2.67;100.00;99637.72;5000084;28;19928;-74
2023/02/26 08:06:40;;;;;;;;;;;;;;;1.19;100.00;99612.94;5002850;28;19977;-75
2023/02/26 08:09:05;;;;;;;;;;;;;;;2.86;100.00;99621.75;5000548;28;19926;-74
2023/02/26 08:11:32;;;;;;;;;;;;;;;2.11;100.00;99607.44;5001983;28;19952;-75
2023/02/26 08:13:58;;;;;;;;;;;;;;;1.53;100.00;99605.84;5002768;28;19927;-75
2023/02/26 08:16:23;;;;;;;;;;;;;;;1.23;100.00;99612.16;5002487;28;20918;-76
2023/02/26 08:18:48;;;;;;;;;;;;;;;2.20;100.00;99630.41;5001646;28;20620;-74
2023/02/26 08:21:13;;;;;;;;;;;;;;;1.86;100.00;99629.97;5003153;28;19921;-75
2023/02/26 08:23:39;;;;;;;;;;;;;;;2.35;100.00;99628.03;5001713;28;19960;-75
2023/02/26 08:26:06;;;;;;;;;;;;;;;2.64;100.00;99635.09;5003502;28;20607;-74
2023/02/26 08:28:31;;;;;;;;;;;;;;;2.01;100.00;99619.16;5002243;28;19935;-74
2023/02/26 08:30:57;;;;;;;;;;;;;;;1.87;100.00;99629.13;5002294;28;19925;-74
2023/02/26 08:33:22;;;;;;;;;;;;;;;1.95;100.00;99627.56;5001767;28;19925;-74
2023/02/26 08:35:47;;;;;;;;;;;;;;;2.30;100.00;99622.91;5001526;28;20279;-74
2023/02/26 08:38:12;;;;;;;;;;;;;;;1.64;100.00;99618.66;5000271;28;20407;-75
2023/02/26 08:40:38;;;;;;;;;;;;;;;2.14;100.00;99636.25;5009295;28;19928;-76
2023/02/26 08:43:03;;;;;;;;;;;;;;;2.35;100.00;99637.34;5003825;28;19924;-76
2023/02/26 08:45:28;;;;;;;;;;;;;;;2.23;100.00;99653.28;5000244;28;19972;-75
2023/02/26 08:47:54;;;;;;;;;;;;;;;1.41;100.00;99638.63;5001654;28;19957;-75
2023/02/26 08:50:19;;;;;;;;;;;;;;;2.41;100.00;99662.84;4986796;28;19917;-76
2023/02/26 08:52:44;;;;;;;;;;;;;;;1.99;100.00;99662.31;5002070;28;20010;-75
2023/02/26 08:55:10;;;;;;;;;;;;;;;3.44;100.00;99671.44;5004147;28;19925;-82
2023/02/26 08:57:35;;;;;;;;;;;;;;;2.54;100.00;99651.97;5007951;28;20056;-76
2023/02/26 09:00:00;;;;;;;;;;;;;;;3.66;100.00;99652.94;5002620;28;19930;-76
2023/02/26 09:02:25;;;;;;;;;;;;;;;2.51;100.00;99635.00;5003494;28;19950;-75
2023/02/26 09:04:51;;;;;;;;;;;;;;;3.35;100.00;99650.19;4999255;28;20039;-75
2023/02/26 09:07:16;;;;;;;;;;;;;;;2.29;100.00;99643.22;5001293;28;20023;-75
2023/02/26 09:09:41;;;;;;;;;;;;;;;2.56;100.00;99655.38;5010929;28;20039;-75
2023/02/26 09:12:06;;;;;;;;;;;;;;;1.95;100.00;99657.19;5003661;28;19959;-75
2023/02/26 09:14:31;;;;;;;;;;;;;;;2.98;100.00;99660.88;5002682;28;20012;-75
2023/02/26 09:16:57;;;;;;;;;;;;;;;1.93;100.00;99652.06;4985135;28;19951;-75
2023/02/26 09:19:22;;;;;;;;;;;;;;;2.33;100.00;99660.22;5005422;28;19925;-76
2023/02/26 09:21:48;;;;;;;;;;;;;;;3.13;100.00;99661.03;5000119;28;19917;-76
2023/02/26 09:24:14;;;;;;;;;;;;;;;3.91;100.00;99658.19;5003377;28;19925;-76
2023/02/26 09:26:39;;;;;;;;;;;;;;;3.19;100.00;99638.16;5000546;28;19917;-76
2023/02/26 09:29:04;;;;;;;;;;;;;;;3.39;100.00;99637.47;5000584;28;19925;-75
2023/02/26 09:31:29;;;;;;;;;;;;;;;3.12;100.00;99644.03;4999529;28;20712;-76
2023/02/26 09:33:55;;;;;;;;;;;;;;;3.34;100.00;99637.44;5001731;28;19921;-76
2023/02/26 09:36:20;;;;;;;;;;;;;;;3.07;100.00;99622.78;5005018;28;19925;-76
2023/02/26 09:38:46;;;;;;;;;;;;;;;3.18;100.00;99635.63;5002299;28;19931;-76
2023/02/26 09:41:23;;;;;;;;;;;;;;;3.73;100.00;99618.16;4987187;28;19932;-75
2023/02/26 09:43:54;;;;;;;;;;;;;;;3.16;100.00;99633.03;5001219;28;19971;-75
2023/02/26 09:46:31;;;;;;;;;;;;;;;4.42;100.00;99620.16;5000248;28;20490;-75
2023/02/26 09:48:59;;;;;;;;;;;;;;;3.75;100.00;99596.94;5001774;28;19960;-75
2023/02/26 09:51:26;;;;;;;;;;;;;;;3.98;100.00;99603.84;5001336;28;20391;-76
2023/02/26 09:53:51;;;;;;;;;;;;;;;3.52;100.00;99595.97;5000137;28;19956;-75
2023/02/26 09:56:17;;;;;;;;;;;;;;;3.86;100.00;99616.53;5000135;28;20575;-75
2023/02/26 09:58:42;;;;;;;;;;;;;;;3.41;100.00;99595.06;5000016;28;19932;-75
2023/02/26 10:01:27;;;;;;;;;;;;;;;4.92;100.00;99604.91;5003182;28;19925;-75
2023/02/26 10:03:58;;;;;;;;;;;;;;;3.02;100.00;99586.28;5001833;28;20628;-75
2023/02/26 10:06:43;;;;;;;;;;;;;;;3.75;100.00;99584.19;5002199;28;20001;-75
2023/02/26 10:09:29;;;;;;;;;;;;;;;4.41;100.00;99573.41;4996246;28;20697;-75
2023/02/26 10:11:57;;;;;;;;;;;;;;;4.02;100.00;99574.97;4999476;28;19929;-75
2023/02/26 10:14:37;;;;;;;;;;;;;;;3.09;100.00;99567.69;5001525;28;19947;-75
2023/02/26 10:17:05;;;;;;;;;;;;;;;2.76;100.00;99581.84;5002162;28;19991;-76
2023/02/26 10:19:36;;;;;;;;;;;;;;;3.24;100.00;99577.97;4998408;28;20747;-75
2023/02/26 10:22:20;;;;;;;;;;;;;;;3.73;100.00;99568.06;4998155;28;20523;-75
2023/02/26 10:24:50;;;;;;;;;;;;;;;4.95;100.00;99566.66;5001745;28;20051;-75
2023/02/26 10:27:17;;;;;;;;;;;;;;;3.67;100.00;99556.97;4999994;28;19924;-75
2023/02/26 10:29:44;;;;;;;;;;;;;;;4.92;100.00;99564.06;4986595;28;19932;-75
2023/02/26 10:32:28;;;;;;;;;;;;;;;4.82;100.00;99554.75;4998129;28;19931;-75
2023/02/26 10:34:55;;;;;;;;;;;;;;;3.65;100.00;99563.75;5000642;28;19928;-75
2023/02/26 10:37:24;;;;;;;;;;;;;;;5.40;100.00;99574.25;4996090;28;19925;-75
2023/02/26 10:39:49;;;;;;;;;;;;;;;5.55;100.00;99560.63;4999150;28;20269;-75
2023/02/26 10:42:16;;;;;;;;;;;;;;;4.31;100.00;99556.34;5000446;28;19960;-75
2023/02/26 10:44:59;;;;;;;;;;;;;;;4.27;100.00;99560.63;4999631;28;19925;-75
2023/02/26 10:47:25;;;;;;;;;;;;;;;5.70;100.00;99552.03;4999873;28;19925;-75
2023/02/26 10:49:54;;;;;;;;;;;;;;;5.33;100.00;99535.09;5000629;28;19922;-75
2023/02/26 10:52:20;;;;;;;;;;;;;;;4.80;100.00;99551.34;5001035;28;20454;-75
2023/02/26 10:55:04;;;;;;;;;;;;;;;4.98;100.00;99551.31;4998706;28;20012;-74
2023/02/26 10:57:32;;;;;;;;;;;;;;;4.30;100.00;99549.56;4999473;28;19964;-75
2023/02/26 10:59:57;;;;;;;;;;;;;;;5.08;100.00;99561.53;5000001;28;21771;-75
2023/02/26 11:02:43;;;;;;;;;;;;;;;4.58;100.00;99560.66;4999465;28;19917;-75
2023/02/26 11:05:19;;;;;;;;;;;;;;;5.51;100.00;99552.09;5000970;28;20034;-75
2023/02/26 11:07:44;;;;;;;;;;;;;;;4.80;100.00;99561.53;5000899;28;19932;-74
2023/02/26 11:10:21;;;;;;;;;;;;;;;5.49;100.00;99550.41;4998478;28;19924;-75
2023/02/26 11:12:46;;;;;;;;;;;;;;;5.98;100.00;99552.81;4998452;28;19929;-75
2023/02/26 11:15:16;;;;;;;;;;;;;;;5.70;100.00;99535.00;4998963;28;19975;-75
2023/02/26 11:17:41;;;;;;;;;;;;;;;6.16;100.00;99542.50;4999623;28;19931;-75
2023/02/26 11:20:27;;;;;;;;;;;;;;;5.15;100.00;99528.31;4998865;28;19969;-75
2023/02/26 11:22:52;;;;;;;;;;;;;;;5.45;100.00;99517.22;4998285;28;19925;-75
2023/02/26 11:25:21;;;;;;;;;;;;;;;5.00;100.00;99524.09;4999559;28;20430;-75
2023/02/26 11:27:47;;;;;;;;;;;;;;;5.03;100.00;99543.66;5001871;28;19926;-75
2023/02/26 11:30:17;;;;;;;;;;;;;;;4.99;100.00;99541.97;4996829;28;19929;-75
2023/02/26 11:32:44;;;;;;;;;;;;;;;6.12;100.00;99553.59;4998737;28;20380;-76
2023/02/26 11:35:12;;;;;;;;;;;;;;;5.75;100.00;99528.19;4999950;28;19968;-76
2023/02/26 11:37:38;;;;;;;;;;;;;;;6.22;100.00;99526.25;5003818;28;19986;-76
2023/02/26 11:40:10;;;;;;;;;;;;;;;5.73;100.00;99506.03;4984162;28;19950;-76
2023/02/26 11:42:37;;;;;;;;;;;;;;;5.66;100.00;99502.66;4998679;28;19932;-75
2023/02/26 11:45:03;;;;;;;;;;;;;;;7.10;100.00;99506.81;5003936;28;21820;-77
2023/02/26 11:47:29;;;;;;;;;;;;;;;6.34;98.84;99495.50;5003723;28;19927;-77
2023/02/26 11:49:55;;;;;;;;;;;;;;;6.99;99.64;99503.50;4997223;28;19925;-77
2023/02/26 11:52:27;;;;;;;;;;;;;;;5.76;94.19;99481.31;4998373;28;19926;-77
2023/02/26 11:54:54;;;;;;;;;;;;;;;5.58;95.48;99502.66;5000386;28;19938;-76
2023/02/26 11:57:22;;;;;;;;;;;;;;;5.87;94.94;99489.78;4997204;28;19932;-76
2023/02/26 11:59:48;;;;;;;;;;;;;;;6.76;93.46;99475.53;4999789;28;19925;-75
2023/02/26 12:02:14;;;;;;;;;;;;;;;7.39;91.85;99469.78;4997682;28;19921;-75
2023/02/26 12:04:43;;;;;;;;;;;;;;;8.00;90.80;99463.00;4998271;28;19925;-75
2023/02/26 12:07:10;;;;;;;;;;;;;;;5.96;89.36;99472.72;5003549;28;20058;-75
2023/02/26 12:09:35;;;;;;;;;;;;;;;5.32;86.86;99471.28;4999317;28;19929;-75
2023/02/26 12:12:01;;;;;;;;;;;;;;;5.96;86.83;99477.84;5002228;28;20980;-74
2023/02/26 12:14:29;;;;;;;;;;;;;;;5.95;86.41;99471.00;5002863;28;20744;-75
2023/02/26 12:17:12;;;;;;;;;;;;;;;5.69;84.10;99454.09;5001762;28;20395;-74
2023/02/26 12:19:41;;;;;;;;;;;;;;;5.80;86.36;99482.16;5002285;28;20016;-75
2023/02/26 12:22:16;;;;;;;;;;;;;;;5.96;84.45;99467.63;5003498;28;19948;-75
2023/02/26 12:24:50;;;;;;;;;;;;;;;6.22;84.29;99460.59;5000813;28;20292;-75
2023/02/26 12:27:26;;;;;;;;;;;;;;;5.51;84.76;99475.44;5001676;28;20448;-75
2023/02/26 12:30:03;;;;;;;;;;;;;;;7.04;84.67;99463.31;4997857;28;20873;-75
2023/02/26 12:32:37;;;;;;;;;;;;;;;9.31;86.80;99468.59;5000888;28;19973;-75
2023/02/26 12:35:03;;;;;;;;;;;;;;;6.79;84.02;99472.94;5000814;28;19937;-76
2023/02/26 12:37:29;;;;;;;;;;;;;;;7.47;84.87;99477.38;5009813;28;19957;-76
2023/02/26 12:39:55;;;;;;;;;;;;;;;9.22;84.33;99464.47;5001232;28;20008;-75
2023/02/26 12:42:20;;;;;;;;;;;;;;;8.38;82.90;99474.44;5004865;28;19959;-73
2023/02/26 12:44:58;;;;;;;;;;;;;;;6.62;84.26;99503.81;4999894;28;19976;-74
2023/02/26 12:47:40;;;;;;;;;;;;;;;6.41;85.51;99506.53;5002946;28;19925;-74
2023/02/26 12:50:15;;;;;;;;;;;;;;;5.80;87.02;99517.94;5002658;28;19925;-74